createdAt,value
2018-02-07T00:01:22.744Z,-1.50
2018-02-07T00:03:53.232Z,-1.40
2018-02-07T00:06:23.581Z,-1.40
2018-02-07T00:08:53.312Z,-1.40
2018-02-07T00:11:23.561Z,-1.40
2018-02-07T00:13:53.882Z,-1.50
2018-02-07T00:16:23.206Z,-1.40
2018-02-07T00:18:53.551Z,-1.40
2018-02-07T00:21:22.122Z,-1.40
2018-02-07T00:23:53.236Z,-1.40
2018-02-07T00:26:21.544Z,-1.40
2018-02-07T00:28:53.368Z,-1.40
2018-02-07T00:31:22.441Z,-1.40
2018-02-07T00:33:52.740Z,-1.40
2018-02-07T00:36:22.302Z,-1.40
2018-02-07T00:38:51.408Z,-1.40
2018-02-07T00:41:20.188Z,-1.40
2018-02-07T00:43:48.676Z,-1.40
2018-02-07T00:46:16.628Z,-1.40
2018-02-07T00:48:45.793Z,-1.40
2018-02-07T00:51:13.834Z,-1.40
2018-02-07T00:53:41.810Z,-1.40
2018-02-07T00:56:09.397Z,-1.40
2018-02-07T00:58:36.917Z,-1.40
2018-02-07T01:01:04.563Z,-1.40
2018-02-07T01:03:32.093Z,-1.40
2018-02-07T01:05:59.634Z,-1.40
2018-02-07T01:08:27.681Z,-1.40
2018-02-07T01:10:55.553Z,-1.40
2018-02-07T01:13:23.819Z,-1.50
2018-02-07T01:15:52.403Z,-1.50
2018-02-07T01:18:20.552Z,-1.40
2018-02-07T01:20:48.547Z,-1.40
2018-02-07T01:23:17.336Z,-1.40
2018-02-07T01:25:45.010Z,-1.40
2018-02-07T01:28:12.621Z,-1.50
2018-02-07T01:30:40.529Z,-1.50
2018-02-07T01:33:08.080Z,-1.50
2018-02-07T01:35:35.603Z,-1.50
2018-02-07T01:38:03.145Z,-1.50
2018-02-07T01:40:30.668Z,-1.40
2018-02-07T01:42:59.002Z,-1.50
2018-02-07T01:45:27.030Z,-1.40
2018-02-07T01:47:55.028Z,-1.40
2018-02-07T01:50:24.557Z,-1.50
2018-02-07T01:52:53.608Z,-1.50
2018-02-07T01:55:22.377Z,-1.50
2018-02-07T01:57:51.073Z,-1.60
2018-02-07T02:00:19.133Z,-1.50
2018-02-07T02:02:47.820Z,-1.60
2018-02-07T02:05:16.133Z,-1.60
2018-02-07T02:07:43.863Z,-1.60
2018-02-07T02:10:11.613Z,-1.60
2018-02-07T02:12:40.176Z,-1.60
2018-02-07T02:15:08.483Z,-1.60
2018-02-07T02:17:36.879Z,-1.60
2018-02-07T02:20:04.557Z,-1.60
2018-02-07T02:22:32.077Z,-1.60
2018-02-07T02:24:59.869Z,-1.60
2018-02-07T02:27:27.871Z,-1.50
2018-02-07T02:29:56.563Z,-1.60
2018-02-07T02:32:24.814Z,-1.60
2018-02-07T02:34:53.435Z,-1.60
2018-02-07T02:37:21.864Z,-1.60
2018-02-07T02:39:51.159Z,-1.70
2018-02-07T02:42:19.124Z,-1.70
2018-02-07T02:44:47.201Z,-1.60
2018-02-07T02:47:15.192Z,-1.70
2018-02-07T02:49:44.180Z,-1.70
2018-02-07T02:52:11.960Z,-1.70
2018-02-07T02:54:39.633Z,-1.70
2018-02-07T02:57:07.453Z,-1.70
2018-02-07T02:59:34.984Z,-1.70
2018-02-07T03:02:03.276Z,-1.80
2018-02-07T03:04:30.816Z,-1.80
2018-02-07T03:06:59.331Z,-1.70
2018-02-07T03:09:27.199Z,-1.80
2018-02-07T03:11:55.289Z,-1.80
2018-02-07T03:14:24.571Z,-1.70
2018-02-07T03:16:53.103Z,-1.80
2018-02-07T03:19:21.360Z,-1.80
2018-02-07T03:21:51.775Z,-1.90
2018-02-07T03:24:21.940Z,-1.90
2018-02-07T03:26:51.174Z,-1.90
2018-02-07T03:29:20.933Z,-1.90
2018-02-07T03:31:49.779Z,-2.00
2018-02-07T03:34:17.467Z,-2.00
2018-02-07T03:36:46.704Z,-2.00
2018-02-07T03:39:15.430Z,-2.00
2018-02-07T03:41:43.362Z,-2.10
2018-02-07T03:44:10.932Z,-2.00
2018-02-07T03:46:38.474Z,-2.00
2018-02-07T03:49:06.010Z,-2.00
2018-02-07T03:51:33.551Z,-2.00
2018-02-07T03:54:01.085Z,-2.00
2018-02-07T03:56:29.057Z,-2.00
2018-02-07T03:58:56.934Z,-2.10
2018-02-07T04:01:26.035Z,-2.00
2018-02-07T04:03:54.495Z,-2.00
2018-02-07T04:06:23.616Z,-2.00
2018-02-07T04:08:51.822Z,-2.10
2018-02-07T04:11:22.240Z,-2.10
2018-02-07T04:13:51.305Z,-2.20
2018-02-07T04:16:21.045Z,-2.20
2018-02-07T04:18:49.805Z,-2.20
2018-02-07T04:21:17.467Z,-2.30
2018-02-07T04:23:46.206Z,-2.30
2018-02-07T04:26:14.532Z,-2.30
2018-02-07T04:28:42.504Z,-2.30
2018-02-07T04:31:10.128Z,-2.30
2018-02-07T04:33:38.431Z,-2.30
2018-02-07T04:36:05.965Z,-2.30
2018-02-07T04:38:34.289Z,-2.30
2018-02-07T04:41:01.824Z,-2.30
2018-02-07T04:43:29.588Z,-2.30
2018-02-07T04:45:57.701Z,-2.20
2018-02-07T04:48:26.669Z,-2.30
2018-02-07T04:50:55.111Z,-2.40
2018-02-07T04:53:23.388Z,-2.40
2018-02-07T04:55:51.706Z,-2.50
2018-02-07T04:58:19.880Z,-2.60
2018-02-07T05:00:49.895Z,-2.90
2018-02-07T05:03:18.890Z,-3.00
2018-02-07T05:05:47.410Z,-3.20
2018-02-07T05:08:16.424Z,-3.30
2018-02-07T05:10:45.154Z,-3.40
2018-02-07T05:13:13.028Z,-3.40
2018-02-07T05:15:40.786Z,-3.50
2018-02-07T05:18:08.354Z,-3.50
2018-02-07T05:20:35.996Z,-3.60
2018-02-07T05:23:03.556Z,-3.70
2018-02-07T05:25:31.116Z,-3.70
2018-02-07T05:27:59.228Z,-3.90
2018-02-07T05:30:27.304Z,-4.00
2018-02-07T05:32:56.435Z,-4.20
2018-02-07T05:35:25.287Z,-4.30
2018-02-07T05:37:54.355Z,-4.20
2018-02-07T05:40:23.056Z,-4.20
2018-02-07T05:42:53.130Z,-4.10
2018-02-07T05:45:23.092Z,-4.00
2018-02-07T05:47:51.998Z,-4.00
2018-02-07T05:50:20.716Z,-4.00
2018-02-07T05:52:49.892Z,-3.90
2018-02-07T05:55:17.944Z,-3.80
2018-02-07T05:57:45.933Z,-3.70
2018-02-07T06:00:13.699Z,-3.70
2018-02-07T06:02:41.280Z,-3.70
2018-02-07T06:05:08.808Z,-3.70
2018-02-07T06:07:36.353Z,-3.80
2018-02-07T06:10:04.245Z,-3.80
2018-02-07T06:12:31.961Z,-3.70
2018-02-07T06:15:00.596Z,-3.60
2018-02-07T06:17:28.662Z,-3.60
2018-02-07T06:19:57.020Z,-3.70
2018-02-07T06:22:25.464Z,-3.80
2018-02-07T06:24:53.490Z,-3.90
2018-02-07T06:27:21.970Z,-4.00
2018-02-07T06:29:51.180Z,-4.20
2018-02-07T06:32:19.351Z,-4.20
2018-02-07T06:34:46.996Z,-4.30
2018-02-07T06:37:14.881Z,-4.30
2018-02-07T06:39:42.446Z,-4.50
2018-02-07T06:42:10.044Z,-4.60
2018-02-07T06:44:38.362Z,-4.80
2018-02-07T06:47:05.909Z,-4.80
2018-02-07T06:49:34.233Z,-5.00
2018-02-07T06:52:01.768Z,-5.10
2018-02-07T06:54:29.333Z,-5.20
2018-02-07T06:56:56.894Z,-5.40
2018-02-07T06:59:24.508Z,-5.40
2018-02-07T07:01:53.247Z,-5.40
2018-02-07T07:04:21.133Z,-5.40
2018-02-07T07:06:48.908Z,-5.40
2018-02-07T07:09:17.283Z,-5.20
2018-02-07T07:11:44.887Z,-5.20
2018-02-07T07:14:12.417Z,-5.00
2018-02-07T07:16:40.407Z,-5.00
2018-02-07T07:19:07.985Z,-5.00
2018-02-07T07:21:35.509Z,-5.00
2018-02-07T07:24:03.180Z,-5.00
2018-02-07T07:26:30.716Z,-5.10
2018-02-07T07:28:58.264Z,-5.10
2018-02-07T07:31:25.848Z,-5.00
2018-02-07T07:33:53.783Z,-4.90
2018-02-07T07:36:22.683Z,-4.70
2018-02-07T07:38:50.440Z,-4.80
2018-02-07T07:41:18.323Z,-4.70
2018-02-07T07:43:45.865Z,-4.60
2018-02-07T07:46:13.420Z,-4.50
2018-02-07T07:48:40.953Z,-4.50
2018-02-07T07:51:09.312Z,-4.60
2018-02-07T07:53:36.901Z,-4.60
2018-02-07T07:56:04.461Z,-4.50
2018-02-07T07:58:32.028Z,-4.50
2018-02-07T08:00:59.559Z,-4.50
2018-02-07T08:03:27.157Z,-4.30
2018-02-07T08:05:54.840Z,-4.20
2018-02-07T08:08:22.797Z,-4.00
2018-02-07T08:10:50.556Z,-3.90
2018-02-07T08:13:19.143Z,-3.80
2018-02-07T08:15:46.959Z,-3.80
2018-02-07T08:18:15.250Z,-3.80
2018-02-07T08:20:43.579Z,-3.90
2018-02-07T08:23:11.200Z,-3.90
2018-02-07T08:25:38.853Z,-3.80
2018-02-07T08:28:07.158Z,-3.50
2018-02-07T08:30:34.678Z,-3.50
2018-02-07T08:33:02.993Z,-3.00
2018-02-07T08:35:30.543Z,-3.00
2018-02-07T08:37:58.108Z,-2.80
2018-02-07T08:40:25.708Z,-2.60
2018-02-07T08:42:53.479Z,-2.60
2018-02-07T08:45:21.243Z,-2.60
2018-02-07T08:47:49.721Z,-2.30
2018-02-07T08:50:17.323Z,-2.30
2018-02-07T08:52:45.627Z,-2.20
2018-02-07T08:55:13.213Z,-1.90
2018-02-07T08:57:40.958Z,-1.90
2018-02-07T09:00:08.512Z,-1.80
2018-02-07T09:02:36.977Z,-1.50
2018-02-07T09:05:04.533Z,-1.50
2018-02-07T09:07:32.060Z,-1.60
2018-02-07T09:10:01.090Z,-1.20
2018-02-07T09:12:28.636Z,-1.20
2018-02-07T09:14:56.990Z,-0.90
2018-02-07T09:17:24.612Z,-0.90
2018-02-07T09:19:52.264Z,-0.50
2018-02-07T09:22:20.248Z,-0.50
2018-02-07T09:24:47.852Z,-0.50
2018-02-07T09:27:16.164Z,-0.50
2018-02-07T09:29:44.564Z,-0.40
2018-02-07T09:32:12.328Z,-0.40
2018-02-07T09:34:40.060Z,-0.40
2018-02-07T09:37:08.378Z,-0.80
2018-02-07T09:39:35.902Z,-0.80
2018-02-07T09:42:04.228Z,-0.80
2018-02-07T09:44:31.800Z,-0.80
2018-02-07T09:46:59.344Z,-0.70
2018-02-07T09:49:26.998Z,-0.80
2018-02-07T09:51:54.755Z,-0.60
2018-02-07T09:54:22.799Z,-0.70
2018-02-07T09:56:50.516Z,-0.80
2018-02-07T09:59:18.169Z,-1.10
2018-02-07T10:01:45.773Z,-1.30
2018-02-07T10:04:13.368Z,-1.50
2018-02-07T10:06:41.139Z,-1.70
2018-02-07T10:09:08.802Z,-1.90
2018-02-07T10:11:36.371Z,-2.00
2018-02-07T10:14:03.892Z,-2.00
2018-02-07T10:16:32.210Z,-2.10
2018-02-07T10:18:59.739Z,-2.10
2018-02-07T10:21:27.496Z,-2.20
2018-02-07T10:23:56.028Z,-2.30
2018-02-07T10:26:23.752Z,-2.30
2018-02-07T10:28:52.244Z,-2.00
2018-02-07T10:31:20.135Z,-2.00
2018-02-07T10:33:47.899Z,-1.80
2018-02-07T10:36:16.496Z,-2.00
2018-02-07T10:38:44.306Z,-2.10
2018-02-07T10:41:12.604Z,-2.10
2018-02-07T10:43:40.168Z,-2.10
2018-02-07T10:46:07.688Z,-2.00
2018-02-07T10:48:35.216Z,-2.00
2018-02-07T10:51:02.769Z,-1.90
2018-02-07T10:53:30.304Z,-1.80
2018-02-07T10:55:57.977Z,-1.80
2018-02-07T10:58:26.056Z,-1.70
2018-02-07T11:00:53.655Z,-1.80
2018-02-07T11:03:21.458Z,-1.60
2018-02-07T11:05:49.116Z,-1.40
2018-02-07T11:08:16.753Z,-1.10
2018-02-07T11:10:44.320Z,-0.90
2018-02-07T11:13:12.647Z,-0.50
2018-02-07T11:15:40.193Z,-0.50
2018-02-07T11:18:07.725Z,-0.30
2018-02-07T11:20:36.030Z,0.10
2018-02-07T11:23:03.562Z,0.00
2018-02-07T11:25:31.924Z,-0.20
2018-02-07T11:28:00.350Z,0.00
2018-02-07T11:30:27.934Z,-0.10
2018-02-07T11:32:56.430Z,0.60
2018-02-07T11:35:24.840Z,1.30
2018-02-07T11:37:53.286Z,1.50
2018-02-07T11:40:22.340Z,1.20
2018-02-07T11:42:50.238Z,1.20
2018-02-07T11:45:18.964Z,0.50
2018-02-07T11:47:47.281Z,0.10
2018-02-07T11:50:14.947Z,0.10
2018-02-07T11:52:42.478Z,-0.30
2018-02-07T11:55:10.868Z,-0.40
2018-02-07T11:57:38.525Z,-0.40
2018-02-07T12:00:06.921Z,-0.40
2018-02-07T12:02:34.468Z,-0.50
2018-02-07T12:05:01.998Z,-0.60
2018-02-07T12:07:29.640Z,-0.60
2018-02-07T12:09:57.351Z,-0.40
2018-02-07T12:12:25.123Z,-0.20
2018-02-07T12:14:52.934Z,-0.20
2018-02-07T12:17:20.656Z,-0.40
2018-02-07T12:19:49.004Z,-0.40
2018-02-07T12:22:16.605Z,-0.30
2018-02-07T12:24:44.267Z,0.00
2018-02-07T12:27:11.848Z,-0.10
2018-02-07T12:29:40.329Z,0.00
2018-02-07T12:32:07.876Z,0.00
2018-02-07T12:34:35.404Z,-0.10
2018-02-07T12:37:03.732Z,0.00
2018-02-07T12:39:31.261Z,-0.10
2018-02-07T12:41:58.932Z,0.00
2018-02-07T12:44:26.551Z,-0.10
2018-02-07T12:46:55.074Z,-0.10
2018-02-07T12:49:23.218Z,-0.10
2018-02-07T12:51:51.768Z,0.00
2018-02-07T12:54:21.020Z,0.00
2018-02-07T12:56:48.588Z,-0.20
2018-02-07T12:59:16.141Z,-0.20
2018-02-07T13:01:43.916Z,-0.10
2018-02-07T13:04:11.524Z,-0.10
2018-02-07T13:06:39.077Z,-0.10
2018-02-07T13:09:06.608Z,-0.20
2018-02-07T13:11:34.153Z,-0.20
2018-02-07T13:14:01.684Z,-0.40
2018-02-07T13:16:29.912Z,-0.50
2018-02-07T13:18:57.468Z,-0.50
2018-02-07T13:21:25.318Z,-0.40
2018-02-07T13:23:52.952Z,-0.20
2018-02-07T13:26:21.049Z,0.00
2018-02-07T13:28:48.701Z,0.10
2018-02-07T13:31:16.252Z,-0.20
2018-02-07T13:33:44.552Z,-0.20
2018-02-07T13:36:12.113Z,-0.20
2018-02-07T13:38:39.712Z,-0.30
2018-02-07T13:41:07.309Z,-0.10
2018-02-07T13:43:35.597Z,-0.10
2018-02-07T13:46:03.138Z,-0.10
2018-02-07T13:48:31.421Z,0.10
2018-02-07T13:50:59.710Z,0.20
2018-02-07T13:53:27.491Z,0.30
2018-02-07T13:55:55.121Z,0.40
2018-02-07T13:58:22.697Z,0.10
2018-02-07T14:00:53.757Z,-0.10
2018-02-07T14:03:21.434Z,-0.20
2018-02-07T14:05:49.031Z,-0.10
2018-02-07T14:08:16.639Z,-0.20
2018-02-07T14:10:44.188Z,-0.10
2018-02-07T14:13:11.784Z,-0.10
2018-02-07T14:15:40.344Z,0.60
2018-02-07T14:18:07.875Z,0.60
2018-02-07T14:20:35.457Z,0.80
2018-02-07T14:23:03.017Z,1.00
2018-02-07T14:25:30.532Z,0.80
2018-02-07T14:27:58.870Z,0.90
2018-02-07T14:30:26.532Z,0.90
2018-02-07T14:32:54.126Z,1.00
2018-02-07T14:35:21.849Z,1.20
2018-02-07T14:37:49.512Z,1.20
2018-02-07T14:40:17.073Z,1.20
2018-02-07T14:42:45.732Z,1.20
2018-02-07T14:45:14.238Z,1.10
2018-02-07T14:47:41.796Z,1.00
2018-02-07T14:50:09.345Z,1.10
2018-02-07T14:52:36.861Z,1.00
2018-02-07T14:55:05.218Z,0.90
2018-02-07T14:57:32.848Z,0.90
2018-02-07T15:00:00.398Z,0.90
2018-02-07T15:02:28.236Z,0.90
2018-02-07T15:04:56.356Z,0.80
2018-02-07T15:07:24.431Z,1.00
2018-02-07T15:09:52.191Z,0.90
2018-02-07T15:12:20.795Z,0.90
2018-02-07T15:14:48.747Z,0.70
2018-02-07T15:17:17.193Z,0.90
2018-02-07T15:19:46.020Z,0.90
2018-02-07T15:22:13.888Z,0.90
2018-02-07T15:24:41.450Z,0.80
2018-02-07T15:27:08.960Z,0.70
2018-02-07T15:29:36.498Z,0.60
2018-02-07T15:32:04.008Z,0.50
2018-02-07T15:34:31.516Z,0.40
2018-02-07T15:36:59.059Z,0.50
2018-02-07T15:39:27.015Z,0.30
2018-02-07T15:41:55.195Z,0.10
2018-02-07T15:44:24.565Z,-0.20
2018-02-07T15:46:54.109Z,-0.30
2018-02-07T15:49:22.288Z,-0.30
2018-02-07T15:51:51.060Z,-0.20
2018-02-07T15:54:19.370Z,-0.30
2018-02-07T15:56:47.692Z,-0.50
2018-02-07T15:59:16.243Z,-1.00
2018-02-07T16:01:44.355Z,-1.00
2018-02-07T16:04:12.158Z,-1.10
2018-02-07T16:06:39.801Z,-1.30
2018-02-07T16:09:07.582Z,-1.30
2018-02-07T16:11:35.225Z,-1.40
2018-02-07T16:14:02.748Z,-1.60
2018-02-07T16:16:31.058Z,-1.80
2018-02-07T16:18:58.848Z,-1.80
2018-02-07T16:21:26.728Z,-2.00
2018-02-07T16:23:54.602Z,-2.10
2018-02-07T16:26:23.662Z,-2.50
2018-02-07T16:28:53.180Z,-2.70
2018-02-07T16:31:22.876Z,-2.70
2018-02-07T16:33:52.862Z,-3.10
2018-02-07T16:36:21.479Z,-3.20
2018-02-07T16:38:50.908Z,-3.20
2018-02-07T16:41:20.877Z,-3.50
2018-02-07T16:43:49.752Z,-3.50
2018-02-07T16:46:19.312Z,-3.70
2018-02-07T16:48:47.926Z,-3.80
2018-02-07T16:51:16.773Z,-3.80
2018-02-07T16:53:44.420Z,-3.90
2018-02-07T16:56:11.943Z,-3.80
2018-02-07T16:58:39.495Z,-3.90
2018-02-07T17:01:08.532Z,-3.80
2018-02-07T17:03:36.090Z,-3.80
2018-02-07T17:06:04.149Z,-3.80
2018-02-07T17:08:32.777Z,-3.90
2018-02-07T17:11:00.353Z,-3.90
2018-02-07T17:13:28.529Z,-3.90
2018-02-07T17:15:56.880Z,-3.90
2018-02-07T17:18:24.989Z,-3.90
2018-02-07T17:20:54.357Z,-4.00
2018-02-07T17:23:23.861Z,-4.10
2018-02-07T17:25:52.797Z,-4.10
2018-02-07T17:28:21.865Z,-4.20
2018-02-07T17:30:51.011Z,-4.30
2018-02-07T17:33:19.323Z,-4.30
2018-02-07T17:35:46.899Z,-4.20
2018-02-07T17:38:14.441Z,-4.20
2018-02-07T17:40:42.313Z,-4.20
2018-02-07T17:43:09.888Z,-4.10
2018-02-07T17:45:37.469Z,-4.20
2018-02-07T17:48:05.154Z,-4.20
2018-02-07T17:50:33.580Z,-4.20
2018-02-07T17:53:01.297Z,-4.20
2018-02-07T17:55:30.024Z,-4.10
2018-02-07T17:57:59.033Z,-4.00
2018-02-07T18:00:27.641Z,-4.00
2018-02-07T18:02:55.893Z,-4.00
2018-02-07T18:05:25.391Z,-3.90
2018-02-07T18:07:55.006Z,-3.80
2018-02-07T18:10:23.181Z,-3.80
2018-02-07T18:12:52.437Z,-4.00
2018-02-07T18:15:21.287Z,-4.00
2018-02-07T18:17:50.299Z,-4.10
2018-02-07T18:20:19.866Z,-4.20
2018-02-07T18:22:47.738Z,-4.30
2018-02-07T18:25:16.216Z,-4.20
2018-02-07T18:27:43.762Z,-4.20
2018-02-07T18:30:11.303Z,-4.20
2018-02-07T18:32:39.867Z,-4.30
2018-02-07T18:35:07.400Z,-4.30
2018-02-07T18:37:35.266Z,-4.30
2018-02-07T18:40:02.812Z,-4.30
2018-02-07T18:42:30.775Z,-4.20
2018-02-07T18:44:58.545Z,-4.30
2018-02-07T18:47:26.312Z,-4.30
2018-02-07T18:49:54.874Z,-4.20
2018-02-07T18:52:24.314Z,-4.20
2018-02-07T18:54:52.916Z,-4.00
2018-02-07T18:57:22.789Z,-3.80
2018-02-07T18:59:52.146Z,-3.70
2018-02-07T19:02:21.122Z,-3.70
2018-02-07T19:04:51.411Z,-3.80
2018-02-07T19:07:19.802Z,-3.80
2018-02-07T19:09:47.463Z,-3.80
2018-02-07T19:12:15.108Z,-3.80
2018-02-07T19:14:42.652Z,-3.70
2018-02-07T19:17:11.226Z,-3.60
2018-02-07T19:19:38.789Z,-3.60
2018-02-07T19:22:07.084Z,-3.60
2018-02-07T19:24:34.637Z,-3.60
2018-02-07T19:27:02.174Z,-3.70
2018-02-07T19:29:31.222Z,-3.70
2018-02-07T19:31:58.773Z,-3.70
2018-02-07T19:34:26.388Z,-3.70
2018-02-07T19:36:54.404Z,-3.60
2018-02-07T19:39:22.539Z,-3.70
2018-02-07T19:41:50.447Z,-3.80
2018-02-07T19:44:18.212Z,-3.90
2018-02-07T19:46:46.579Z,-4.30
2018-02-07T19:49:14.116Z,-4.30
2018-02-07T19:51:42.436Z,-4.60
2018-02-07T19:54:09.983Z,-4.60
2018-02-07T19:56:37.528Z,-4.70
2018-02-07T19:59:05.063Z,-4.80
2018-02-07T20:01:32.622Z,-4.80
2018-02-07T20:04:00.986Z,-4.90
2018-02-07T20:06:28.740Z,-4.90
2018-02-07T20:08:57.531Z,-4.90
2018-02-07T20:11:25.276Z,-4.90
2018-02-07T20:13:53.317Z,-4.70
2018-02-07T20:16:21.512Z,-4.60
2018-02-07T20:18:49.332Z,-4.70
2018-02-07T20:21:16.992Z,-4.60
2018-02-07T20:23:45.618Z,-4.70
2018-02-07T20:26:13.150Z,-4.80
2018-02-07T20:28:41.467Z,-4.70
2018-02-07T20:31:09.030Z,-4.80
2018-02-07T20:33:36.589Z,-4.70
2018-02-07T20:36:04.166Z,-4.70
2018-02-07T20:38:32.012Z,-4.60
2018-02-07T20:41:00.752Z,-4.60
2018-02-07T20:43:28.391Z,-4.60
2018-02-07T20:45:56.331Z,-4.70
2018-02-07T20:48:24.921Z,-4.90
2018-02-07T20:50:52.661Z,-5.00
2018-02-07T20:53:20.533Z,-5.00
2018-02-07T20:55:48.516Z,-5.10
2018-02-07T20:58:16.932Z,-5.30
2018-02-07T21:00:44.663Z,-5.30
2018-02-07T21:03:12.229Z,-5.30
2018-02-07T21:05:39.756Z,-5.40
2018-02-07T21:08:08.318Z,-5.30
2018-02-07T21:10:36.664Z,-5.40
2018-02-07T21:13:04.373Z,-5.40
2018-02-07T21:15:35.107Z,-5.30
2018-02-07T21:18:06.032Z,-5.40
2018-02-07T21:20:37.675Z,-5.40
2018-02-07T21:23:06.158Z,-5.60
2018-02-07T21:25:34.205Z,-5.80
2018-02-07T21:28:01.762Z,-5.80
2018-02-07T21:30:29.776Z,-5.90
2018-02-07T21:32:57.485Z,-6.00
2018-02-07T21:35:26.512Z,-6.20
2018-02-07T21:37:54.979Z,-6.30
2018-02-07T21:40:22.993Z,-6.30
2018-02-07T21:42:51.524Z,-6.30
2018-02-07T21:45:43.403Z,-6.40
2018-02-07T21:48:11.008Z,-6.40
2018-02-07T21:50:38.554Z,-6.50
2018-02-07T21:53:06.101Z,-6.50
2018-02-07T21:55:34.409Z,-6.60
2018-02-07T21:58:01.928Z,-6.70
2018-02-07T22:00:30.479Z,-6.70
2018-02-07T22:02:58.220Z,-6.70
2018-02-07T22:05:25.986Z,-6.60
2018-02-07T22:07:53.965Z,-6.50
2018-02-07T22:10:23.039Z,-6.50
2018-02-07T22:12:52.150Z,-6.50
2018-02-07T22:15:20.530Z,-6.50
2018-02-07T22:17:49.306Z,-6.60
2018-02-07T22:20:17.694Z,-6.50
2018-02-07T22:22:45.552Z,-6.60
2018-02-07T22:25:13.114Z,-6.60
2018-02-07T22:27:40.640Z,-6.50
2018-02-07T22:30:08.924Z,-6.30
2018-02-07T22:32:37.229Z,-6.30
2018-02-07T22:35:04.752Z,-6.30
2018-02-07T22:37:33.055Z,-6.20
2018-02-07T22:40:00.636Z,-6.20
2018-02-07T22:42:28.543Z,-6.20
2018-02-07T22:44:56.560Z,-6.30
2018-02-07T22:47:24.841Z,-6.40
2018-02-07T22:49:53.373Z,-6.50
2018-02-07T22:52:23.041Z,-6.50
2018-02-07T22:54:52.385Z,-6.50
2018-02-07T22:57:22.099Z,-6.30
2018-02-07T22:59:50.762Z,-6.30
2018-02-07T23:02:20.061Z,-6.30
2018-02-07T23:04:49.788Z,-6.30
2018-02-07T23:07:17.950Z,-6.30
2018-02-07T23:09:45.509Z,-6.20
2018-02-07T23:12:13.043Z,-6.20
2018-02-07T23:14:40.706Z,-6.20
2018-02-07T23:17:08.232Z,-6.20
2018-02-07T23:19:36.532Z,-6.30
2018-02-07T23:22:04.052Z,-6.30
2018-02-07T23:24:31.689Z,-6.40
2018-02-07T23:26:59.818Z,-6.40
2018-02-07T23:29:28.757Z,-6.50
2018-02-07T23:31:57.430Z,-6.60
2018-02-07T23:34:25.516Z,-6.60
2018-02-07T23:36:53.764Z,-6.50
2018-02-07T23:39:23.091Z,-6.70
2018-02-07T23:41:51.347Z,-6.70
2018-02-07T23:44:20.342Z,-6.80
2018-02-07T23:46:48.411Z,-6.80
2018-02-07T23:49:16.074Z,-6.70
2018-02-07T23:51:43.614Z,-6.80
2018-02-07T23:54:11.156Z,-6.70
2018-02-07T23:56:39.753Z,-6.70
2018-02-07T23:59:08.036Z,-6.80
